Flight Track Log - Related Links

Times and Time Zones

All times are in EDT time to prevent confusion due to time zone crossing. See the N4508X flight status page for this flight to view local times or setup timezone preferences in your user account.

Time Position Orientation Groundspeed Altitude Reporting Facility
EDT Latitude Longitude Course Direction KTS MPH feet Rate Location/Type
Sat 10:02:44 AM 41.0667 -73.7167 27° Northeast 94 108 1,700  Level New York TRACON
Sat 10:03:38 AM 41.0667 -73.7500 270° West 67 77 2,400 789 Climbing New York TRACON
Sat 10:04:38 AM 41.0667 -73.7667 270° West 55 63 3,200 714 Climbing New York TRACON
Sat 10:05:44 AM 41.0667 -73.7833 270° West 98 113 3,900 619 Climbing New York TRACON
Sat 10:06:44 AM 41.1000 -73.7667 21° North 127 146 4,500 500 Climbing New York TRACON
Sat 10:07:44 AM 41.1333 -73.7500 21° North 133 153 4,900 211 Climbing New York TRACON
Sat 10:08:00 AM 41.2287 -73.5920 27° Northeast  Level FlightAware Approximate
Sat 10:08:38 AM 41.1667 -73.7167 37° Northeast 144 166 4,900  Level New York TRACON
Sat 10:09:44 AM 41.2000 -73.6833 37° Northeast 144 166 5,000 95 Climbing New York TRACON
Sat 10:10:44 AM 41.2167 -73.6500 56° Northeast 150 173 5,100  Climbing New York TRACON
Sat 10:11:44 AM 41.2500 -73.6167 37° Northeast 153 176 5,000 -100 Descending New York TRACON
Sat 10:12:44 AM 41.2833 -73.5667 48° Northeast 161 185 4,900  Descending New York TRACON
Sat 10:13:44 AM 41.2833 -73.5167 90° East 135 155 5,000 50 Climbing New York TRACON
Sat 10:14:44 AM 41.2667 -73.4667 114° Southeast 138 159 5,000 -250 Level New York TRACON
Sat 10:16:00 AM 41.2511 -73.4199 114° Southeast  Level FlightAware Approximate
Sat 10:17:44 AM 41.2667 -73.3333 143° Southeast 125 144 4,000  Level New York TRACON
Sat 10:18:44 AM 41.2667 -73.2833 90° East 130 150 4,100 -300 Climbing New York TRACON
Sat 10:19:44 AM 41.2667 -73.2333 90° East 145 167 3,400 -367 Descending New York TRACON
Sat 10:21:44 AM 41.3000 -73.1333 66° East 132 152 3,000 -133 Descending New York TRACON
Sat 10:22:44 AM 41.3000 -73.0833 90° East 139 160 3,000 50 Level New York TRACON
Sat 10:23:00 AM 41.1904 -73.1571 143° Southeast  Level FlightAware Approximate
Sat 10:23:44 AM 41.3000 -73.0333 90° East 122 140 3,100  Level New York TRACON
Sat 10:24:44 AM 41.2833 -73.0000 124° Southeast 108 124 2,900 -250 Descending New York TRACON
Sat 10:25:44 AM 41.2667 -73.0000 180° South 77 89 2,600 -421 Descending New York TRACON
Sat 10:26:38 AM 41.2500 -73.0167 217° Southwest 90 104 2,100 -556 Descending New York TRACON

Login

Don't have an account? Register now (free) for customized features, flight alerts, and more!